sensor_id;sensor_type;location;lat;lon;timestamp;temperature;humidity
20422;DHT22;10370;53.102;18.034;2022-10-18T00:00:16;13.60;99.90
20422;DHT22;10370;53.102;18.034;2022-10-18T00:05:37;13.50;99.90
20422;DHT22;10370;53.102;18.034;2022-10-18T00:10:57;13.30;99.90
20422;DHT22;10370;53.102;18.034;2022-10-18T00:16:19;13.20;99.90
20422;DHT22;10370;53.102;18.034;2022-10-18T00:21:40;13.10;99.90
20422;DHT22;10370;53.102;18.034;2022-10-18T00:27:01;13.10;99.90
20422;DHT22;10370;53.102;18.034;2022-10-18T00:32:22;13.00;99.90
20422;DHT22;10370;53.102;18.034;2022-10-18T00:37:43;13.00;99.90
20422;DHT22;10370;53.102;18.034;2022-10-18T00:43:04;12.90;99.90
20422;DHT22;10370;53.102;18.034;2022-10-18T00:48:25;12.90;99.90
20422;DHT22;10370;53.102;18.034;2022-10-18T00:53:48;12.90;99.90
20422;DHT22;10370;53.102;18.034;2022-10-18T00:59:09;12.90;99.90
20422;DHT22;10370;53.102;18.034;2022-10-18T01:04:31;12.90;99.90
20422;DHT22;10370;53.102;18.034;2022-10-18T01:27:00;12.70;99.90
20422;DHT22;10370;53.102;18.034;2022-10-18T01:32:26;12.70;99.90
20422;DHT22;10370;53.102;18.034;2022-10-18T01:37:49;12.60;99.90
20422;DHT22;10370;53.102;18.034;2022-10-18T01:43:12;12.60;99.90
20422;DHT22;10370;53.102;18.034;2022-10-18T01:48:35;12.50;99.90
20422;DHT22;10370;53.102;18.034;2022-10-18T01:53:57;12.30;99.90
20422;DHT22;10370;53.102;18.034;2022-10-18T02:05:38;12.10;99.90
20422;DHT22;10370;53.102;18.034;2022-10-18T02:11:08;12.10;99.90
20422;DHT22;10370;53.102;18.034;2022-10-18T02:16:43;12.00;99.90
20422;DHT22;10370;53.102;18.034;2022-10-18T02:22:07;12.00;99.90
20422;DHT22;10370;53.102;18.034;2022-10-18T02:27:28;12.00;99.90
20422;DHT22;10370;53.102;18.034;2022-10-18T02:33:00;12.00;99.90
20422;DHT22;10370;53.102;18.034;2022-10-18T02:38:24;11.90;99.90
20422;DHT22;10370;53.102;18.034;2022-10-18T02:43:45;11.90;99.90
20422;DHT22;10370;53.102;18.034;2022-10-18T02:49:06;11.70;99.90
20422;DHT22;10370;53.102;18.034;2022-10-18T02:54:27;11.70;99.90
20422;DHT22;10370;53.102;18.034;2022-10-18T02:59:49;11.70;99.90
20422;DHT22;10370;53.102;18.034;2022-10-18T03:05:10;11.80;99.90
20422;DHT22;10370;53.102;18.034;2022-10-18T03:10:31;11.80;99.90
20422;DHT22;10370;53.102;18.034;2022-10-18T03:15:52;11.90;99.90
20422;DHT22;10370;53.102;18.034;2022-10-18T03:21:13;11.70;99.90
20422;DHT22;10370;53.102;18.034;2022-10-18T03:26:33;11.70;99.90
20422;DHT22;10370;53.102;18.034;2022-10-18T03:31:54;11.70;99.90
20422;DHT22;10370;53.102;18.034;2022-10-18T03:37:15;11.60;99.90
20422;DHT22;10370;53.102;18.034;2022-10-18T03:42:36;11.70;99.90
20422;DHT22;10370;53.102;18.034;2022-10-18T03:47:57;11.70;99.90
20422;DHT22;10370;53.102;18.034;2022-10-18T04:34:34;12.20;99.90
20422;DHT22;10370;53.102;18.034;2022-10-18T04:39:54;12.30;99.90
20422;DHT22;10370;53.102;18.034;2022-10-18T04:45:15;12.30;99.90
20422;DHT22;10370;53.102;18.034;2022-10-18T04:50:36;12.30;99.90
20422;DHT22;10370;53.102;18.034;2022-10-18T04:55:57;12.30;99.90
20422;DHT22;10370;53.102;18.034;2022-10-18T05:01:18;12.40;99.90
20422;DHT22;10370;53.102;18.034;2022-10-18T05:06:39;12.40;99.90
20422;DHT22;10370;53.102;18.034;2022-10-18T05:12:00;12.40;99.90
20422;DHT22;10370;53.102;18.034;2022-10-18T05:17:21;12.60;99.90
20422;DHT22;10370;53.102;18.034;2022-10-18T05:22:41;12.70;99.90
20422;DHT22;10370;53.102;18.034;2022-10-18T05:28:02;12.70;99.90
20422;DHT22;10370;53.102;18.034;2022-10-18T05:33:25;12.80;99.90
20422;DHT22;10370;53.102;18.034;2022-10-18T05:38:46;12.80;99.90
20422;DHT22;10370;53.102;18.034;2022-10-18T05:44:08;12.90;99.90
20422;DHT22;10370;53.102;18.034;2022-10-18T05:49:29;12.90;99.90
20422;DHT22;10370;53.102;18.034;2022-10-18T05:54:50;12.90;99.90
20422;DHT22;10370;53.102;18.034;2022-10-18T06:00:11;13.00;99.90
20422;DHT22;10370;53.102;18.034;2022-10-18T06:05:32;13.00;99.90
20422;DHT22;10370;53.102;18.034;2022-10-18T06:10:52;13.00;99.90
20422;DHT22;10370;53.102;18.034;2022-10-18T06:16:15;13.10;99.90
20422;DHT22;10370;53.102;18.034;2022-10-18T06:21:36;13.10;99.90
20422;DHT22;10370;53.102;18.034;2022-10-18T06:26:57;13.20;99.90
20422;DHT22;10370;53.102;18.034;2022-10-18T06:32:18;13.20;99.90
20422;DHT22;10370;53.102;18.034;2022-10-18T06:37:39;13.30;99.90
20422;DHT22;10370;53.102;18.034;2022-10-18T06:43:03;13.40;99.90
20422;DHT22;10370;53.102;18.034;2022-10-18T06:48:39;13.40;99.90
20422;DHT22;10370;53.102;18.034;2022-10-18T06:54:00;13.50;99.90
20422;DHT22;10370;53.102;18.034;2022-10-18T06:59:38;13.50;99.90
20422;DHT22;10370;53.102;18.034;2022-10-18T07:04:59;13.50;99.90
20422;DHT22;10370;53.102;18.034;2022-10-18T07:10:20;13.60;99.90
20422;DHT22;10370;53.102;18.034;2022-10-18T07:15:41;13.80;99.90
20422;DHT22;10370;53.102;18.034;2022-10-18T07:21:07;13.90;99.90
20422;DHT22;10370;53.102;18.034;2022-10-18T07:26:31;13.90;99.90
20422;DHT22;10370;53.102;18.034;2022-10-18T07:31:52;14.00;99.90
20422;DHT22;10370;53.102;18.034;2022-10-18T07:37:13;14.10;99.90
20422;DHT22;10370;53.102;18.034;2022-10-18T07:42:34;14.10;99.90
20422;DHT22;10370;53.102;18.034;2022-10-18T07:47:56;14.20;99.90
20422;DHT22;10370;53.102;18.034;2022-10-18T07:53:17;14.30;99.90
20422;DHT22;10370;53.102;18.034;2022-10-18T07:58:38;14.40;99.90
20422;DHT22;10370;53.102;18.034;2022-10-18T08:03:59;14.50;99.90
20422;DHT22;10370;53.102;18.034;2022-10-18T08:09:26;14.60;99.90
20422;DHT22;10370;53.102;18.034;2022-10-18T08:14:47;14.80;99.90
20422;DHT22;10370;53.102;18.034;2022-10-18T08:20:08;14.90;99.90
20422;DHT22;10370;53.102;18.034;2022-10-18T08:25:45;15.00;99.90
20422;DHT22;10370;53.102;18.034;2022-10-18T08:31:09;15.00;99.90
20422;DHT22;10370;53.102;18.034;2022-10-18T08:36:31;15.10;99.90
20422;DHT22;10370;53.102;18.034;2022-10-18T08:47:44;15.20;99.90
20422;DHT22;10370;53.102;18.034;2022-10-18T08:53:29;15.20;99.90
20422;DHT22;10370;53.102;18.034;2022-10-18T08:58:53;15.30;99.90
20422;DHT22;10370;53.102;18.034;2022-10-18T09:15:50;15.50;99.90
20422;DHT22;10370;53.102;18.034;2022-10-18T09:26:59;15.60;99.90
20422;DHT22;10370;53.102;18.034;2022-10-18T09:32:49;15.60;99.90
20422;DHT22;10370;53.102;18.034;2022-10-18T09:38:16;15.70;99.90
20422;DHT22;10370;53.102;18.034;2022-10-18T09:44:02;15.60;99.90
20422;DHT22;10370;53.102;18.034;2022-10-18T09:49:29;15.60;99.90
20422;DHT22;10370;53.102;18.034;2022-10-18T09:54:58;15.60;99.90
20422;DHT22;10370;53.102;18.034;2022-10-18T10:00:31;15.60;99.90
20422;DHT22;10370;53.102;18.034;2022-10-18T10:11:45;15.70;99.90
20422;DHT22;10370;53.102;18.034;2022-10-18T10:17:24;15.80;99.90
20422;DHT22;10370;53.102;18.034;2022-10-18T10:22:51;15.80;99.90
20422;DHT22;10370;53.102;18.034;2022-10-18T10:28:15;15.70;99.90
20422;DHT22;10370;53.102;18.034;2022-10-18T10:33:37;15.60;99.90
20422;DHT22;10370;53.102;18.034;2022-10-18T10:39:17;15.60;99.90
20422;DHT22;10370;53.102;18.034;2022-10-18T10:45:02;15.50;99.90
20422;DHT22;10370;53.102;18.034;2022-10-18T10:50:50;15.50;99.90
20422;DHT22;10370;53.102;18.034;2022-10-18T10:56:35;15.40;99.90
20422;DHT22;10370;53.102;18.034;2022-10-18T11:02:37;15.40;99.90
20422;DHT22;10370;53.102;18.034;2022-10-18T11:08:22;15.30;99.90
20422;DHT22;10370;53.102;18.034;2022-10-18T11:19:23;15.20;99.90
20422;DHT22;10370;53.102;18.034;2022-10-18T11:24:47;15.20;99.90
20422;DHT22;10370;53.102;18.034;2022-10-18T11:30:32;15.30;99.90
20422;DHT22;10370;53.102;18.034;2022-10-18T11:36:10;15.30;99.90
20422;DHT22;10370;53.102;18.034;2022-10-18T11:47:27;15.40;99.90
20422;DHT22;10370;53.102;18.034;2022-10-18T11:53:26;15.50;99.90
20422;DHT22;10370;53.102;18.034;2022-10-18T11:59:06;15.30;99.90
20422;DHT22;10370;53.102;18.034;2022-10-18T12:04:36;15.30;99.90
20422;DHT22;10370;53.102;18.034;2022-10-18T12:10:06;15.30;99.90
20422;DHT22;10370;53.102;18.034;2022-10-18T12:15:31;15.30;99.90
20422;DHT22;10370;53.102;18.034;2022-10-18T12:20:55;15.30;99.90
20422;DHT22;10370;53.102;18.034;2022-10-18T12:26:16;15.30;99.90
20422;DHT22;10370;53.102;18.034;2022-10-18T12:32:08;15.30;99.90
20422;DHT22;10370;53.102;18.034;2022-10-18T12:43:15;15.30;99.90
20422;DHT22;10370;53.102;18.034;2022-10-18T12:48:42;15.30;99.90
20422;DHT22;10370;53.102;18.034;2022-10-18T12:54:10;15.30;99.90
20422;DHT22;10370;53.102;18.034;2022-10-18T13:04:52;15.30;99.90
20422;DHT22;10370;53.102;18.034;2022-10-18T13:15:41;15.20;99.90
20422;DHT22;10370;53.102;18.034;2022-10-18T13:32:27;15.10;99.90
20422;DHT22;10370;53.102;18.034;2022-10-18T13:37:58;15.10;99.90
20422;DHT22;10370;53.102;18.034;2022-10-18T14:11:33;15.00;99.90
20422;DHT22;10370;53.102;18.034;2022-10-18T14:17:14;14.90;99.90
20422;DHT22;10370;53.102;18.034;2022-10-18T14:28:27;14.80;99.90
20422;DHT22;10370;53.102;18.034;2022-10-18T14:34:13;14.80;99.90
20422;DHT22;10370;53.102;18.034;2022-10-18T14:39:37;14.80;99.90
20422;DHT22;10370;53.102;18.034;2022-10-18T14:44:58;14.70;99.90
20422;DHT22;10370;53.102;18.034;2022-10-18T14:50:24;14.70;99.90
20422;DHT22;10370;53.102;18.034;2022-10-18T14:55:58;14.60;99.90
20422;DHT22;10370;53.102;18.034;2022-10-18T15:01:22;14.60;99.90
20422;DHT22;10370;53.102;18.034;2022-10-18T15:06:44;14.60;99.90
20422;DHT22;10370;53.102;18.034;2022-10-18T15:12:06;14.60;99.90
20422;DHT22;10370;53.102;18.034;2022-10-18T15:17:29;14.60;99.90
20422;DHT22;10370;53.102;18.034;2022-10-18T15:22:52;14.60;99.90
20422;DHT22;10370;53.102;18.034;2022-10-18T15:28:40;14.60;99.90
20422;DHT22;10370;53.102;18.034;2022-10-18T15:34:17;14.60;99.90
20422;DHT22;10370;53.102;18.034;2022-10-18T15:39:38;14.60;99.90
20422;DHT22;10370;53.102;18.034;2022-10-18T15:44:59;14.60;99.90
20422;DHT22;10370;53.102;18.034;2022-10-18T16:02:13;14.60;99.90
20422;DHT22;10370;53.102;18.034;2022-10-18T16:07:34;14.60;99.90
20422;DHT22;10370;53.102;18.034;2022-10-18T16:12:55;14.60;99.90
20422;DHT22;10370;53.102;18.034;2022-10-18T16:18:17;14.60;99.90
20422;DHT22;10370;53.102;18.034;2022-10-18T16:23:38;14.50;99.90
20422;DHT22;10370;53.102;18.034;2022-10-18T16:28:59;14.50;99.90
20422;DHT22;10370;53.102;18.034;2022-10-18T16:34:20;14.50;99.90
20422;DHT22;10370;53.102;18.034;2022-10-18T16:39:40;14.50;99.90
20422;DHT22;10370;53.102;18.034;2022-10-18T16:45:02;14.40;99.90
20422;DHT22;10370;53.102;18.034;2022-10-18T16:50:23;14.40;99.90
20422;DHT22;10370;53.102;18.034;2022-10-18T16:55:44;14.40;99.90
20422;DHT22;10370;53.102;18.034;2022-10-18T17:01:05;14.40;99.90
20422;DHT22;10370;53.102;18.034;2022-10-18T17:06:30;14.30;99.90
20422;DHT22;10370;53.102;18.034;2022-10-18T17:11:53;14.30;99.90
20422;DHT22;10370;53.102;18.034;2022-10-18T17:17:13;14.30;99.90
20422;DHT22;10370;53.102;18.034;2022-10-18T17:22:34;14.20;99.90
20422;DHT22;10370;53.102;18.034;2022-10-18T17:27:55;14.10;99.90
20422;DHT22;10370;53.102;18.034;2022-10-18T17:33:15;14.10;99.90
20422;DHT22;10370;53.102;18.034;2022-10-18T17:38:36;14.10;99.90
20422;DHT22;10370;53.102;18.034;2022-10-18T17:43:57;14.10;99.90
20422;DHT22;10370;53.102;18.034;2022-10-18T17:49:18;14.00;99.90
20422;DHT22;10370;53.102;18.034;2022-10-18T17:54:40;13.90;99.90
20422;DHT22;10370;53.102;18.034;2022-10-18T18:00:02;13.90;99.90
20422;DHT22;10370;53.102;18.034;2022-10-18T18:05:30;13.90;99.90
20422;DHT22;10370;53.102;18.034;2022-10-18T18:10:54;13.80;99.90
20422;DHT22;10370;53.102;18.034;2022-10-18T18:16:21;13.80;99.90
20422;DHT22;10370;53.102;18.034;2022-10-18T18:21:42;13.80;99.90
20422;DHT22;10370;53.102;18.034;2022-10-18T18:27:03;13.80;99.90
20422;DHT22;10370;53.102;18.034;2022-10-18T18:32:24;13.70;99.90
20422;DHT22;10370;53.102;18.034;2022-10-18T18:37:49;13.50;99.90
20422;DHT22;10370;53.102;18.034;2022-10-18T18:43:10;13.40;99.90
20422;DHT22;10370;53.102;18.034;2022-10-18T18:48:42;13.30;99.90
20422;DHT22;10370;53.102;18.034;2022-10-18T18:54:03;13.20;99.90
20422;DHT22;10370;53.102;18.034;2022-10-18T18:59:24;13.10;99.90
20422;DHT22;10370;53.102;18.034;2022-10-18T19:04:45;13.00;99.90
20422;DHT22;10370;53.102;18.034;2022-10-18T19:10:06;12.80;99.90
20422;DHT22;10370;53.102;18.034;2022-10-18T19:15:27;12.70;99.90
20422;DHT22;10370;53.102;18.034;2022-10-18T19:20:48;12.60;99.90
20422;DHT22;10370;53.102;18.034;2022-10-18T19:26:17;12.60;99.90
20422;DHT22;10370;53.102;18.034;2022-10-18T19:31:40;12.50;99.90
20422;DHT22;10370;53.102;18.034;2022-10-18T19:37:02;12.40;99.90
20422;DHT22;10370;53.102;18.034;2022-10-18T19:42:23;12.40;99.90
20422;DHT22;10370;53.102;18.034;2022-10-18T19:47:49;12.30;99.90
20422;DHT22;10370;53.102;18.034;2022-10-18T19:53:10;12.30;99.90
20422;DHT22;10370;53.102;18.034;2022-10-18T19:58:31;12.10;99.90
20422;DHT22;10370;53.102;18.034;2022-10-18T20:03:51;12.10;99.90
20422;DHT22;10370;53.102;18.034;2022-10-18T20:09:13;12.00;99.90
20422;DHT22;10370;53.102;18.034;2022-10-18T20:14:37;11.90;99.90
20422;DHT22;10370;53.102;18.034;2022-10-18T20:19:58;11.80;99.90
20422;DHT22;10370;53.102;18.034;2022-10-18T20:25:19;11.70;99.90
20422;DHT22;10370;53.102;18.034;2022-10-18T20:30:39;11.60;99.90
20422;DHT22;10370;53.102;18.034;2022-10-18T20:36:10;11.50;99.90
20422;DHT22;10370;53.102;18.034;2022-10-18T20:41:32;11.50;99.90
20422;DHT22;10370;53.102;18.034;2022-10-18T20:46:53;11.40;99.90
20422;DHT22;10370;53.102;18.034;2022-10-18T20:52:14;11.30;99.90
20422;DHT22;10370;53.102;18.034;2022-10-18T20:57:34;11.20;99.90
20422;DHT22;10370;53.102;18.034;2022-10-18T21:02:58;11.10;99.90
20422;DHT22;10370;53.102;18.034;2022-10-18T21:08:19;11.10;99.90
20422;DHT22;10370;53.102;18.034;2022-10-18T21:13:40;11.10;99.90
20422;DHT22;10370;53.102;18.034;2022-10-18T21:19:04;11.10;99.90
20422;DHT22;10370;53.102;18.034;2022-10-18T21:24:25;11.10;99.90
20422;DHT22;10370;53.102;18.034;2022-10-18T21:29:47;11.00;99.90
20422;DHT22;10370;53.102;18.034;2022-10-18T21:35:08;10.90;99.90
20422;DHT22;10370;53.102;18.034;2022-10-18T21:40:30;10.90;99.90
20422;DHT22;10370;53.102;18.034;2022-10-18T21:45:57;11.10;99.90
20422;DHT22;10370;53.102;18.034;2022-10-18T21:51:19;11.10;99.90
20422;DHT22;10370;53.102;18.034;2022-10-18T21:56:40;11.10;99.90
20422;DHT22;10370;53.102;18.034;2022-10-18T22:02:01;11.20;99.90
20422;DHT22;10370;53.102;18.034;2022-10-18T22:07:22;11.30;99.90
20422;DHT22;10370;53.102;18.034;2022-10-18T22:12:43;11.30;99.90
20422;DHT22;10370;53.102;18.034;2022-10-18T22:18:04;11.40;99.90
20422;DHT22;10370;53.102;18.034;2022-10-18T22:23:29;11.40;99.90
20422;DHT22;10370;53.102;18.034;2022-10-18T22:28:57;11.40;99.90
20422;DHT22;10370;53.102;18.034;2022-10-18T22:34:20;11.40;99.90
20422;DHT22;10370;53.102;18.034;2022-10-18T22:39:41;11.40;99.90
20422;DHT22;10370;53.102;18.034;2022-10-18T22:45:01;11.40;99.90
20422;DHT22;10370;53.102;18.034;2022-10-18T22:50:23;11.50;99.90
20422;DHT22;10370;53.102;18.034;2022-10-18T22:55:44;11.50;99.90
20422;DHT22;10370;53.102;18.034;2022-10-18T23:06:26;11.40;99.90
20422;DHT22;10370;53.102;18.034;2022-10-18T23:11:47;11.40;99.90
20422;DHT22;10370;53.102;18.034;2022-10-18T23:17:10;11.40;99.90
20422;DHT22;10370;53.102;18.034;2022-10-18T23:22:30;11.40;99.90
20422;DHT22;10370;53.102;18.034;2022-10-18T23:27:51;11.40;99.90
20422;DHT22;10370;53.102;18.034;2022-10-18T23:33:12;11.50;99.90
20422;DHT22;10370;53.102;18.034;2022-10-18T23:38:33;11.40;99.90
20422;DHT22;10370;53.102;18.034;2022-10-18T23:43:54;11.40;99.90
20422;DHT22;10370;53.102;18.034;2022-10-18T23:49:14;11.30;99.90
20422;DHT22;10370;53.102;18.034;2022-10-18T23:54:35;11.30;99.90
20422;DHT22;10370;53.102;18.034;2022-10-18T23:59:55;11.30;99.90
